Zonnebeke, Belgium
Current Conditions -  °F | °C
As of 11:55 PM on Tuesday 21 Oct 2014 (Local Time) from EBFN Reporting Station
Broken Clouds Broken Clouds  
Wind Chill: 50°   Ceiling: 6000
Heat Index: 50°   Visibility: 6mi
Dew Point: 37°   Wind: 25mph
Humidity: 62%   Direction: 310°NW
Pressure: 30"   Gusts: 39mph
Location:  50.87°N, 2.99°E
Report Text: EBFN 212155Z 31022G34KT 9999 FEW023 SCT045 BKN060 10/03 Q1016 BLU
Loading
Personal Weather Stations






























Interactive Weather Map
Tropical Storm Tracking
New forecast layout! Learn more

10-Day Weather Forecast

Advertisements
Track Severe Weather on mobile